Old Tappan, New Jersey
Current Conditions -  °F | °C
As of 11:51 AM on Thursday 30 Oct 2014 (Local Time) from KTEB Reporting Station
Clear Clear  
Wind Chill: 57°   Ceiling: Unl
Heat Index: 57°   Visibility: 10mi
Dew Point: 38°   Wind: 8mph
Humidity: 49%   Direction: 330°NNW
Pressure: 29.99"   Gusts: NA
Location:  41.0025°N, 74.0303°W
Report Text: KTEB 301551Z 33007KT 300V360 10SM CLR 14/03 A2999 RMK AO2 SLP154 T01390033
Loading
Personal Weather Stations






























Interactive Weather Map
Tropical Storm Tracking
New forecast layout! Learn more

10-Day Weather Forecast

Advertisements
Track Severe Weather on mobile